Time;durP1;ratioP1;P1;durP2;ratioP2;P2;SDS_P1;SDS_P2;PMS_P1;PMS_P2;Temp;Humidity;BMP_temperature;BMP_pressure;BME280_temperature;BME280_humidity;BME280_pressure;Samples;Min_cycle;Max_cycle;Signal;HPM_P1;HPM_P2
2022/04/10 00:01:32;;;;;;;18.92;11.30;;;0.50;99.90;;;;;;5015721;28;20040;-86
2022/04/10 00:03:58;;;;;;;31.10;12.90;;;0.40;99.90;;;;;;5032524;28;20034;-86
2022/04/10 00:06:25;;;;;;;27.83;12.65;;;0.30;99.90;;;;;;5048444;28;20035;-86
2022/04/10 00:08:51;;;;;;;32.28;13.70;;;0.30;99.90;;;;;;5015973;28;20029;-86
2022/04/10 00:11:17;;;;;;;29.42;13.40;;;0.20;99.90;;;;;;5015565;28;20638;-86
2022/04/10 00:13:44;;;;;;;29.92;14.75;;;0.20;99.90;;;;;;5048558;28;20084;-86
2022/04/10 00:16:10;;;;;;;33.13;15.00;;;0.10;99.90;;;;;;5015869;28;20116;-86
2022/04/10 00:18:37;;;;;;;25.25;13.82;;;0.10;99.90;;;;;;5015758;28;20067;-86
2022/04/10 00:21:03;;;;;;;32.88;14.93;;;0.10;99.90;;;;;;5032289;28;20029;-85
2022/04/10 00:23:29;;;;;;;38.28;17.27;;;0.10;99.90;;;;;;5016122;28;20612;-86
2022/04/10 00:25:54;;;;;;;36.72;15.68;;;0.10;99.90;;;;;;5015699;28;20029;-83
2022/04/10 00:28:20;;;;;;;33.45;16.17;;;0.10;99.90;;;;;;5031747;28;20365;-84
2022/04/10 00:30:46;;;;;;;33.70;15.38;;;0.00;99.90;;;;;;5014884;28;20030;-84
2022/04/10 00:33:12;;;;;;;37.72;17.17;;;0.10;99.90;;;;;;5015444;28;20040;-83
2022/04/10 00:35:37;;;;;;;37.03;17.30;;;0.10;99.90;;;;;;5015641;28;20091;-83
2022/04/10 00:38:04;;;;;;;32.63;16.85;;;0.10;99.90;;;;;;5015348;28;20087;-83
2022/04/10 00:40:30;;;;;;;33.95;17.33;;;0.10;99.90;;;;;;5015358;28;20076;-84
2022/04/10 00:42:56;;;;;;;38.65;18.33;;;0.10;99.90;;;;;;5015265;28;20068;-83
2022/04/10 00:45:22;;;;;;;40.30;16.88;;;0.10;99.90;;;;;;5015429;28;20061;-84
2022/04/10 00:47:48;;;;;;;44.80;19.13;;;0.10;99.90;;;;;;5014856;28;20061;-84
2022/04/10 00:50:17;;;;;;;39.05;18.05;;;0.20;99.90;;;;;;5031222;28;20029;-84
2022/04/10 00:52:44;;;;;;;36.75;18.90;;;0.20;99.90;;;;;;5014913;28;20072;-84
2022/04/10 00:55:11;;;;;;;42.65;18.13;;;0.20;99.90;;;;;;5031743;28;20029;-84
2022/04/10 00:57:55;;;;;;;35.72;16.88;;;0.20;99.90;;;;;;5014861;28;20040;-84
2022/04/10 01:03:52;;;;;;;40.20;17.33;;;0.10;99.90;;;;;;5014899;28;20500;-86
2022/04/10 01:06:18;;;;;;;35.47;17.42;;;0.00;99.90;;;;;;5047887;28;20048;-85
2022/04/10 01:08:44;;;;;;;41.60;19.15;;;0.00;99.90;;;;;;5014890;28;20029;-86
2022/04/10 01:11:11;;;;;;;40.92;17.20;;;0.00;99.90;;;;;;5014458;28;20037;-86
2022/04/10 01:13:37;;;;;;;35.28;17.52;;;0.00;99.90;;;;;;5014758;28;20030;-85
2022/04/10 01:16:04;;;;;;;49.75;19.65;;;0.00;99.90;;;;;;5047386;28;20026;-85
2022/04/10 01:18:31;;;;;;;50.67;19.17;;;-0.10;99.90;;;;;;5030723;28;20393;-86
2022/04/10 01:21:03;;;;;;;43.28;19.50;;;-0.20;99.90;;;;;;5014340;28;20159;-86
2022/04/10 01:23:31;;;;;;;46.35;19.45;;;-0.30;99.90;;;;;;5014339;28;20128;-86
2022/04/10 01:25:57;;;;;;;45.80;19.60;;;-0.20;99.90;;;;;;5013956;28;20108;-85
2022/04/10 01:28:23;;;;;;;39.55;19.15;;;-0.20;99.90;;;;;;5031038;28;20037;-85
2022/04/10 01:30:49;;;;;;;45.63;19.38;;;-0.30;99.90;;;;;;5047455;28;20083;-86
2022/04/10 01:33:23;;;;;;;52.72;23.17;;;-0.30;99.90;;;;;;5014495;28;20025;-86
2022/04/10 01:35:49;;;;;;;44.30;20.60;;;-0.20;99.90;;;;;;5047688;28;20022;-86
2022/04/10 01:38:18;;;;;;;53.35;22.00;;;-0.30;99.90;;;;;;5014426;28;20025;-85
2022/04/10 01:40:49;;;;;;;57.25;22.13;;;-0.30;99.90;;;;;;5029855;28;20033;-86
2022/04/10 01:43:15;;;;;;;53.70;22.98;;;-0.30;99.90;;;;;;5014724;28;20036;-86
2022/04/10 01:45:41;;;;;;;57.40;21.15;;;-0.30;99.90;;;;;;5014823;28;20132;-86
2022/04/10 01:48:07;;;;;;;55.33;22.85;;;-0.40;99.90;;;;;;5014502;28;20436;-86
2022/04/10 01:50:33;;;;;;;60.97;23.92;;;-0.40;99.90;;;;;;5014519;28;20484;-86
2022/04/10 01:53:03;;;;;;;53.58;22.92;;;-0.40;99.90;;;;;;5030856;28;20033;-86
2022/04/10 01:55:29;;;;;;;61.78;25.88;;;-0.40;99.90;;;;;;5014624;28;20504;-86
2022/04/10 01:57:55;;;;;;;63.42;24.60;;;-0.40;99.90;;;;;;5030772;28;20120;-86
2022/04/10 02:00:39;;;;;;;70.00;25.60;;;-0.50;99.90;;;;;;5047333;28;20437;-86
2022/04/10 02:03:05;;;;;;;57.58;24.08;;;-0.50;99.90;;;;;;5014686;28;20028;-86
2022/04/10 02:05:31;;;;;;;58.20;25.52;;;-0.50;99.90;;;;;;5014397;28;20140;-86
2022/04/10 02:07:58;;;;;;;65.15;24.92;;;-0.50;99.90;;;;;;5014228;28;20038;-86
2022/04/10 02:10:23;;;;;;;57.65;25.67;;;-0.50;99.90;;;;;;5013907;28;20029;-86
2022/04/10 02:12:50;;;;;;;59.17;26.30;;;-0.50;99.90;;;;;;5013988;28;20073;-86
2022/04/10 02:15:16;;;;;;;66.72;26.70;;;-0.60;99.90;;;;;;5030500;28;20029;-86
2022/04/10 02:17:41;;;;;;;64.90;27.23;;;-0.60;99.90;;;;;;5014463;28;20028;-86
2022/04/10 02:20:07;;;;;;;76.07;29.02;;;-0.50;99.90;;;;;;5014148;28;20033;-86
2022/04/10 02:22:33;;;;;;;59.22;26.05;;;-0.50;99.90;;;;;;5030848;28;20080;-86
2022/04/10 02:24:59;;;;;;;66.00;26.73;;;-0.50;99.90;;;;;;5014624;28;20116;-86
2022/04/10 02:27:26;;;;;;;57.72;26.58;;;-0.50;99.90;;;;;;5014480;28;20034;-86
2022/04/10 02:29:51;;;;;;;63.70;28.27;;;-0.60;99.90;;;;;;5014488;28;20033;-86
2022/04/10 02:32:17;;;;;;;61.63;27.15;;;-0.50;99.90;;;;;;5047482;28;20037;-86
2022/04/10 02:34:43;;;;;;;60.60;27.02;;;-0.50;99.90;;;;;;5014208;28;20044;-86
2022/04/10 02:37:08;;;;;;;68.68;27.77;;;-0.60;99.90;;;;;;5014104;28;20128;-86
2022/04/10 02:39:35;;;;;;;60.03;26.30;;;-0.60;99.90;;;;;;5017410;28;20039;-86
2022/04/10 02:42:00;;;;;;;67.93;27.17;;;-0.70;99.90;;;;;;5017656;28;20520;-86
2022/04/10 02:44:26;;;;;;;68.05;27.92;;;-0.70;99.90;;;;;;5017736;28;20028;-86
2022/04/10 02:46:52;;;;;;;69.68;28.52;;;-0.60;99.90;;;;;;5050412;28;20038;-86
2022/04/10 02:49:18;;;;;;;73.63;28.73;;;-0.60;99.90;;;;;;5017530;28;20076;-86
2022/04/10 02:51:47;;;;;;;65.45;29.65;;;-0.70;99.90;;;;;;5017617;28;20116;-86
2022/04/10 02:54:14;;;;;;;75.18;29.65;;;-0.70;99.90;;;;;;5017840;28;20112;-86
2022/04/10 02:56:40;;;;;;;74.93;29.40;;;-0.70;99.90;;;;;;5035459;28;20079;-86
2022/04/10 02:59:06;;;;;;;84.78;32.72;;;-0.70;99.90;;;;;;5017262;28;20033;-85
2022/04/10 03:01:31;;;;;;;73.68;32.03;;;-0.70;99.90;;;;;;5033267;28;20515;-87
2022/04/10 03:03:57;;;;;;;77.45;32.30;;;-0.70;99.90;;;;;;5016981;28;20033;-85
2022/04/10 03:06:24;;;;;;;80.70;31.05;;;-0.70;99.90;;;;;;5033436;28;20468;-86
2022/04/10 03:08:50;;;;;;;81.03;31.95;;;-0.80;99.90;;;;;;5017050;28;20032;-86
2022/04/10 03:11:26;;;;;;;74.25;31.23;;;-0.80;99.90;;;;;;5016979;28;20056;-86
2022/04/10 03:13:52;;;;;;;90.25;33.20;;;-0.80;99.90;;;;;;5033597;28;20033;-86
2022/04/10 03:16:19;;;;;;;89.93;35.78;;;-0.90;99.90;;;;;;5016679;28;20037;-86
2022/04/10 03:18:44;;;;;;;85.28;33.28;;;-0.90;99.90;;;;;;5049910;28;20026;-86
2022/04/10 03:21:10;;;;;;;80.25;34.58;;;-0.90;99.90;;;;;;5016154;28;20542;-86
2022/04/10 03:23:36;;;;;;;92.70;35.22;;;-0.90;99.90;;;;;;5016835;28;20033;-86
2022/04/10 03:26:02;;;;;;;88.00;36.90;;;-0.90;99.90;;;;;;5049805;28;20029;-86
2022/04/10 03:28:30;;;;;;;92.65;36.58;;;-0.90;99.90;;;;;;5016409;28;20033;-86
2022/04/10 03:30:58;;;;;;;101.15;37.03;;;-0.90;99.90;;;;;;5016216;28;20045;-86
2022/04/10 03:33:24;;;;;;;97.22;38.45;;;-0.90;99.90;;;;;;5033073;28;20036;-86
2022/04/10 03:35:50;;;;;;;103.43;39.05;;;-0.90;99.90;;;;;;5016431;28;20737;-86
2022/04/10 03:38:16;;;;;;;97.97;39.67;;;-0.90;99.90;;;;;;5033014;28;20033;-86
2022/04/10 03:40:41;;;;;;;93.93;38.72;;;-0.90;99.90;;;;;;5015645;28;20037;-86
2022/04/10 03:43:07;;;;;;;105.85;41.38;;;-1.00;99.90;;;;;;5033033;28;20059;-86
2022/04/10 03:45:33;;;;;;;114.82;41.20;;;-0.90;99.90;;;;;;5016961;28;20029;-86
2022/04/10 03:47:58;;;;;;;107.28;40.42;;;-1.00;99.90;;;;;;5032206;28;20021;-86
2022/04/10 03:50:27;;;;;;;108.85;40.95;;;-1.00;99.90;;;;;;5032154;28;20052;-86
2022/04/10 03:52:54;;;;;;;107.88;41.00;;;-1.00;99.90;;;;;;5016027;28;20028;-86
2022/04/10 03:55:20;;;;;;;116.18;44.38;;;-1.00;99.90;;;;;;5016475;28;20416;-86
2022/04/10 03:57:46;;;;;;;98.07;41.65;;;-1.10;99.90;;;;;;5033090;28;20504;-86
2022/04/10 04:00:13;;;;;;;104.72;40.28;;;-1.20;99.90;;;;;;5016722;28;20029;-86
2022/04/10 04:02:50;;;;;;;116.10;41.20;;;-1.20;99.90;;;;;;5031523;28;20484;-86
2022/04/10 04:05:22;;;;;;;110.22;40.20;;;-1.20;99.90;;;;;;5016454;28;20044;-86
2022/04/10 04:07:48;;;;;;;106.70;41.45;;;-1.20;99.90;;;;;;5032972;28;20037;-86
2022/04/10 04:10:15;;;;;;;119.72;44.05;;;-1.20;99.90;;;;;;5032858;28;20040;-86
2022/04/10 04:12:40;;;;;;;117.10;42.42;;;-1.20;99.90;;;;;;5016526;28;20465;-86
2022/04/10 04:15:07;;;;;;;127.50;43.85;;;-1.20;99.90;;;;;;5016319;28;20032;-86
2022/04/10 04:17:33;;;;;;;117.57;41.35;;;-1.10;99.90;;;;;;5015817;28;20488;-86
2022/04/10 04:20:01;;;;;;;123.60;41.13;;;-1.20;99.90;;;;;;5015918;28;20128;-86
2022/04/10 04:22:26;;;;;;;126.30;42.13;;;-1.20;99.90;;;;;;5016360;28;20095;-86
2022/04/10 04:24:53;;;;;;;130.60;43.40;;;-1.20;99.90;;;;;;5016213;28;20930;-86
2022/04/10 04:27:20;;;;;;;115.35;41.50;;;-1.20;99.90;;;;;;5031910;28;20485;-86
2022/04/10 04:29:46;;;;;;;131.20;44.33;;;-1.20;99.90;;;;;;5031993;28;20036;-86
2022/04/10 04:32:12;;;;;;;135.52;43.35;;;-1.20;99.90;;;;;;5015928;28;20033;-85
2022/04/10 04:34:38;;;;;;;125.35;43.33;;;-1.20;99.90;;;;;;5016312;28;20026;-86
2022/04/10 04:37:04;;;;;;;140.68;44.60;;;-1.30;99.90;;;;;;5015758;28;20026;-86
2022/04/10 04:39:31;;;;;;;116.75;45.60;;;-1.30;99.90;;;;;;5029880;28;20045;-85
2022/04/10 04:41:57;;;;;;;426.85;141.18;;;-1.20;99.90;;;;;;5015291;28;20128;-86
2022/04/10 04:44:23;;;;;;;341.92;109.80;;;-1.30;99.90;;;;;;5014396;28;20491;-86
2022/04/10 04:46:49;;;;;;;166.95;54.33;;;-1.40;99.90;;;;;;5031888;28;20022;-90
2022/04/10 04:49:16;;;;;;;134.05;47.60;;;-1.40;99.90;;;;;;5016399;28;20025;-90
2022/04/10 04:51:42;;;;;;;147.27;46.13;;;-1.40;99.90;;;;;;5016667;28;20111;-90
2022/04/10 04:54:09;;;;;;;132.38;47.55;;;-1.40;99.90;;;;;;5026870;28;20117;-89
2022/04/10 04:56:35;;;;;;;139.30;45.80;;;-1.40;99.90;;;;;;5047774;28;20026;-89
2022/04/10 04:59:01;;;;;;;157.25;49.90;;;-1.40;99.90;;;;;;5015884;28;20025;-90
2022/04/10 05:01:27;;;;;;;155.05;50.50;;;-1.30;99.90;;;;;;5047793;28;20031;-89
2022/04/10 05:03:54;;;;;;;136.13;48.78;;;-1.30;99.90;;;;;;5032159;28;20040;-90
2022/04/10 05:06:20;;;;;;;135.55;48.50;;;-1.20;99.90;;;;;;5015902;28;20476;-90
2022/04/10 05:08:46;;;;;;;145.10;53.15;;;-1.20;99.90;;;;;;5032489;28;20032;-90
2022/04/10 05:11:13;;;;;;;147.75;51.28;;;-1.10;99.90;;;;;;5032560;28;20041;-90
2022/04/10 05:13:40;;;;;;;147.15;54.67;;;-1.10;99.90;;;;;;5016349;28;20037;-89
2022/04/10 05:16:07;;;;;;;158.48;52.67;;;-1.10;99.90;;;;;;5016336;28;20393;-89
2022/04/10 05:18:36;;;;;;;140.57;52.35;;;-1.10;99.90;;;;;;5016032;28;20026;-90
2022/04/10 05:21:03;;;;;;;152.93;53.83;;;-1.00;99.90;;;;;;5015844;28;20037;-90
2022/04/10 05:23:29;;;;;;;153.23;53.78;;;-0.90;99.90;;;;;;5049416;28;20060;-89
2022/04/10 05:26:02;;;;;;;149.25;51.25;;;-0.90;99.90;;;;;;5016612;28;20040;-90
2022/04/10 05:28:32;;;;;;;147.55;51.30;;;-0.90;99.90;;;;;;5049534;28;20037;-90
2022/04/10 05:30:57;;;;;;;137.77;51.92;;;-0.90;99.90;;;;;;5016267;28;20497;-90
2022/04/10 05:33:32;;;;;;;139.35;49.80;;;-0.90;99.90;;;;;;5031975;28;20030;-89
2022/04/10 05:35:58;;;;;;;160.82;52.72;;;-0.90;99.90;;;;;;5049556;28;20028;-89
2022/04/10 05:38:25;;;;;;;154.20;53.10;;;-0.80;99.90;;;;;;5016427;28;20099;-90
2022/04/10 05:40:53;;;;;;;149.18;56.00;;;-0.60;99.90;;;;;;5032590;28;20046;-90
2022/04/10 05:43:22;;;;;;;176.75;68.82;;;-0.40;99.90;;;;;;5016354;28;20033;-91
2022/04/10 05:45:50;;;;;;;152.35;56.50;;;-0.20;99.90;;;;;;5032599;28;20029;-91
2022/04/10 05:48:16;;;;;;;141.52;53.95;;;-0.10;99.90;;;;;;5031714;28;20100;-90
2022/04/10 05:50:43;;;;;;;135.57;51.10;;;0.00;99.90;;;;;;5031915;28;20037;-90
2022/04/10 05:53:09;;;;;;;115.70;46.70;;;0.20;99.90;;;;;;5031844;28;20029;-89
2022/04/10 05:55:39;;;;;;;123.38;48.05;;;0.20;99.90;;;;;;5013303;28;20381;-90
2022/04/10 05:58:09;;;;;;;116.00;45.53;;;0.30;99.90;;;;;;5016136;28;20026;-90
2022/04/10 06:00:36;;;;;;;112.70;43.22;;;0.30;99.90;;;;;;5031537;28;20057;-90
2022/04/10 06:03:13;;;;;;;109.18;44.00;;;0.30;99.90;;;;;;5016053;28;20038;-91
2022/04/10 06:05:42;;;;;;;100.80;43.45;;;0.30;99.90;;;;;;5015765;28;20056;-90
2022/04/10 06:08:22;;;;;;;100.93;41.80;;;0.30;99.90;;;;;;5049267;28;20040;-90
2022/04/10 06:10:48;;;;;;;91.35;39.15;;;0.30;99.90;;;;;;5015063;28;20096;-91
2022/04/10 06:13:15;;;;;;;87.47;37.30;;;0.30;99.90;;;;;;5018992;28;20088;-91
2022/04/10 06:15:51;;;;;;;87.22;37.55;;;0.30;99.90;;;;;;5020178;28;20042;-91
2022/04/10 06:18:17;;;;;;;97.20;38.95;;;0.40;99.90;;;;;;5036214;28;20469;-90
2022/04/10 06:20:42;;;;;;;81.07;36.10;;;0.40;99.90;;;;;;5020106;28;20036;-90
2022/04/10 06:23:10;;;;;;;77.35;33.88;;;0.40;99.90;;;;;;5052877;28;20029;-90
2022/04/10 06:25:40;;;;;;;72.82;32.25;;;0.50;99.90;;;;;;5019496;28;20495;-90
2022/04/10 06:28:09;;;;;;;67.03;31.75;;;0.40;99.90;;;;;;5052374;28;20118;-91
2022/04/10 06:30:39;;;;;;;223.05;98.95;;;0.50;99.90;;;;;;5019797;28;20033;-91
2022/04/10 06:33:05;;;;;;;91.40;40.15;;;0.50;99.90;;;;;;5019649;28;20081;-90
2022/04/10 06:35:32;;;;;;;68.88;31.75;;;0.40;99.90;;;;;;5018903;28;20479;-90
2022/04/10 06:38:02;;;;;;;53.92;27.10;;;0.50;99.90;;;;;;5035152;28;20026;-91
2022/04/10 06:40:28;;;;;;;57.22;27.25;;;0.60;99.90;;;;;;5018752;28;20029;-90
2022/04/10 06:42:54;;;;;;;49.50;26.27;;;0.60;99.90;;;;;;5018865;28;20038;-91
2022/04/10 06:45:21;;;;;;;46.67;23.85;;;0.60;99.90;;;;;;5036612;28;20841;-90
2022/04/10 06:47:55;;;;;;;49.42;23.98;;;0.60;99.90;;;;;;5046847;28;20484;-90
2022/04/10 06:50:25;;;;;;;39.08;21.42;;;0.60;99.90;;;;;;5034305;28;20060;-91
2022/04/10 06:52:53;;;;;;;40.80;19.98;;;0.60;99.90;;;;;;5034729;28;20025;-91
2022/04/10 06:55:19;;;;;;;38.15;19.20;;;0.60;99.90;;;;;;5018823;28;20393;-91
2022/04/10 06:57:46;;;;;;;36.08;18.77;;;0.70;99.90;;;;;;5018676;28;20121;-91
2022/04/10 07:00:13;;;;;;;36.85;19.73;;;0.70;99.90;;;;;;5018849;28;20044;-91
2022/04/10 07:02:44;;;;;;;38.47;17.77;;;0.80;99.90;;;;;;5016123;28;20489;-91
2022/04/10 07:05:09;;;;;;;35.65;18.65;;;0.80;99.90;;;;;;5018447;28;20068;-90
2022/04/10 07:07:41;;;;;;;37.63;20.92;;;0.80;99.90;;;;;;5031780;28;20029;-91
2022/04/10 07:10:07;;;;;;;49.67;24.42;;;0.80;99.90;;;;;;5030849;28;20426;-90
2022/04/10 07:12:32;;;;;;;34.10;17.23;;;0.80;99.90;;;;;;5034800;28;20035;-91
2022/04/10 07:15:02;;;;;;;35.70;17.27;;;0.90;99.90;;;;;;5051636;28;20029;-89
2022/04/10 07:17:29;;;;;;;32.25;16.25;;;1.00;99.90;;;;;;5035007;28;20021;-91
2022/04/10 07:19:58;;;;;;;27.58;16.35;;;1.10;99.90;;;;;;5034391;28;20029;-91
2022/04/10 07:25:10;;;;;;;25.40;13.80;;;1.20;99.90;;;;;;5033174;28;20041;-91
2022/04/10 07:28:31;;;;;;;26.58;14.30;;;1.30;99.90;;;;;;5034406;28;20032;-90
2022/04/10 07:31:00;;;;;;;26.10;13.52;;;1.40;99.90;;;;;;5001814;28;20088;-90
2022/04/10 07:33:30;;;;;;;30.20;15.85;;;1.50;99.90;;;;;;5017798;28;20025;-89
2022/04/10 07:36:04;;;;;;;23.58;13.52;;;1.50;99.90;;;;;;5017461;28;20121;-90
2022/04/10 07:38:34;;;;;;;23.58;13.55;;;1.50;99.90;;;;;;5033447;28;20018;-89
2022/04/10 07:41:05;;;;;;;24.95;13.25;;;1.50;99.90;;;;;;5017238;28;20125;-89
2022/04/10 07:43:36;;;;;;;24.10;12.88;;;1.50;99.90;;;;;;5017324;28;20029;-90
2022/04/10 07:48:52;;;;;;;24.17;13.45;;;1.60;99.90;;;;;;5015932;28;20056;-89
2022/04/10 07:51:21;;;;;;;26.33;13.00;;;1.50;99.90;;;;;;5017102;28;20033;-89
2022/04/10 07:53:55;;;;;;;19.50;12.65;;;1.50;99.90;;;;;;5017141;28;20086;-88
2022/04/10 07:56:21;;;;;;;20.33;10.75;;;1.50;99.90;;;;;;5017102;28;20025;-89
2022/04/10 07:58:47;;;;;;;19.42;10.07;;;1.70;99.90;;;;;;5016722;28;20116;-88
2022/04/10 08:01:23;;;;;;;18.00;9.55;;;1.60;99.90;;;;;;5017200;28;20492;-87
2022/04/10 08:03:51;;;;;;;22.23;9.63;;;1.80;99.90;;;;;;5017473;28;20121;-89
2022/04/10 08:06:40;;;;;;;23.60;11.70;;;1.90;99.90;;;;;;5017828;28;20029;-88
2022/04/10 08:09:06;;;;;;;23.27;12.75;;;2.00;99.90;;;;;;5029964;28;20033;-89
2022/04/10 08:11:32;;;;;;;20.55;9.40;;;1.80;99.90;;;;;;5016704;28;20083;-89
2022/04/10 08:13:58;;;;;;;18.15;10.13;;;1.90;99.90;;;;;;5017105;28;20025;-89
2022/04/10 08:16:23;;;;;;;28.73;9.95;;;1.90;99.90;;;;;;5017238;28;20034;-89
2022/04/10 08:18:49;;;;;;;25.30;13.32;;;2.00;99.90;;;;;;5016900;28;20036;-89
2022/04/10 08:21:15;;;;;;;24.52;11.93;;;2.00;99.90;;;;;;5017167;28;20041;-88
2022/04/10 08:23:41;;;;;;;26.45;11.88;;;1.90;99.90;;;;;;5049730;28;20033;-89
2022/04/10 08:26:07;;;;;;;26.35;12.40;;;1.80;99.90;;;;;;5033326;28;20038;-89
2022/04/10 08:28:34;;;;;;;24.75;12.60;;;1.70;99.90;;;;;;5016765;28;20033;-88
2022/04/10 08:31:00;;;;;;;24.20;13.00;;;1.50;99.90;;;;;;5032593;28;20044;-88
2022/04/10 08:33:26;;;;;;;22.83;12.60;;;1.30;99.90;;;;;;5033191;28;20033;-89
2022/04/10 08:35:52;;;;;;;31.27;12.88;;;1.20;99.90;;;;;;5033211;28;20401;-89
2022/04/10 08:38:17;;;;;;;35.22;16.05;;;1.10;99.90;;;;;;5016449;28;20029;-89
2022/04/10 08:40:45;;;;;;;33.47;15.35;;;1.10;99.90;;;;;;5016349;28;20124;-89
2022/04/10 08:43:11;;;;;;;31.17;16.00;;;1.10;99.90;;;;;;5032794;28;20552;-89
2022/04/10 08:45:38;;;;;;;29.48;14.30;;;1.00;99.90;;;;;;5033083;28;20039;-88
2022/04/10 08:48:05;;;;;;;36.15;15.68;;;1.10;99.90;;;;;;5049816;28;20033;-88
2022/04/10 08:50:31;;;;;;;34.75;16.23;;;1.30;99.90;;;;;;5032909;28;20037;-89
2022/04/10 08:52:58;;;;;;;35.92;15.50;;;1.60;99.90;;;;;;5049751;28;20260;-89
2022/04/10 08:55:25;;;;;;;27.85;15.88;;;1.90;99.90;;;;;;5034087;28;20038;-89
2022/04/10 08:57:50;;;;;;;24.02;13.95;;;2.20;99.90;;;;;;5016078;28;20061;-88
2022/04/10 09:00:19;;;;;;;41.83;20.10;;;2.50;99.90;;;;;;5016484;28;20599;-89
2022/04/10 09:02:54;;;;;;;24.33;12.05;;;2.30;99.90;;;;;;5015725;28;20093;-88
2022/04/10 09:05:24;;;;;;;20.38;11.20;;;2.10;99.90;;;;;;5033637;28;20030;-88
2022/04/10 09:08:16;;;;;;;25.15;11.25;;;2.30;99.90;;;;;;5032430;28;20033;-89
2022/04/10 09:11:20;;;;;;;21.02;9.45;;;2.60;99.90;;;;;;5011749;28;20103;-89
2022/04/10 09:13:47;;;;;;;17.98;10.60;;;2.90;99.90;;;;;;5031940;28;20516;-89
2022/04/10 09:16:14;;;;;;;18.67;10.30;;;3.00;99.90;;;;;;5032197;28;20040;-90
2022/04/10 09:19:01;;;;;;;17.05;9.10;;;3.20;99.90;;;;;;5011278;28;20021;-89
2022/04/10 09:21:29;;;;;;;19.17;8.82;;;3.40;99.90;;;;;;5048886;28;20073;-89
2022/04/10 09:24:03;;;;;;;13.68;7.40;;;3.70;99.90;;;;;;5032365;28;20484;-89
2022/04/10 09:26:56;;;;;;;18.63;8.13;;;4.00;99.90;;;;;;5015689;28;20036;-88
2022/04/10 09:29:24;;;;;;;15.05;7.47;;;3.90;99.90;;;;;;5011096;28;20057;-88
2022/04/10 09:31:51;;;;;;;15.38;7.60;;;4.30;99.90;;;;;;4997330;28;20112;-89
2022/04/10 09:34:19;;;;;;;18.45;8.02;;;4.30;99.90;;;;;;5015817;28;20030;-88
2022/04/10 09:36:47;;;;;;;14.80;8.10;;;4.20;99.90;;;;;;5015135;28;20493;-89
2022/04/10 09:39:29;;;;;;;12.25;7.43;;;4.20;99.90;;;;;;5015927;28;20126;-89
2022/04/10 09:42:06;;;;;;;11.27;7.50;;;4.70;99.90;;;;;;5033310;28;20030;-89
2022/04/10 09:44:37;;;;;;;14.73;7.82;;;5.20;99.90;;;;;;5016257;28;20037;-89
2022/04/10 09:47:08;;;;;;;16.35;7.32;;;5.10;99.90;;;;;;5016993;28;20048;-89
2022/04/10 09:49:39;;;;;;;13.65;6.80;;;4.40;99.90;;;;;;5019469;28;20041;-89
2022/04/10 09:52:07;;;;;;;18.90;9.05;;;3.80;99.90;;;;;;5037010;28;20033;-89
2022/04/10 09:54:38;;;;;;;676.58;295.38;;;3.40;99.90;;;;;;5037296;28;20116;-90
2022/04/10 09:57:10;;;;;;;;;;;3.20;99.90;;;;;;5036350;28;20112;-90
2022/04/10 09:59:37;;;;;;;;;;;3.00;99.90;;;;;;5053132;28;19909;-88
2022/04/10 10:02:05;;;;;;;19.67;11.35;;;2.90;99.90;;;;;;5035716;28;19960;-89
2022/04/10 10:04:36;;;;;;;24.58;12.73;;;2.50;99.90;;;;;;5019039;28;20125;-88
2022/04/10 10:07:04;;;;;;;26.92;11.82;;;2.40;99.90;;;;;;5035611;28;20384;-89
2022/04/10 10:09:32;;;;;;;25.95;11.98;;;2.30;99.90;;;;;;5035289;28;20037;-88
2022/04/10 10:12:02;;;;;;;27.30;16.50;;;2.70;99.90;;;;;;5035208;28;20041;-88
2022/04/10 10:14:33;;;;;;;28.77;19.55;;;2.80;99.90;;;;;;5051943;28;20477;-89
2022/04/10 10:17:00;;;;;;;23.33;12.95;;;3.00;99.90;;;;;;5018365;28;20037;-89
2022/04/10 10:19:28;;;;;;;20.27;11.07;;;3.00;99.90;;;;;;5018504;28;20029;-89
2022/04/10 10:21:54;;;;;;;22.23;10.55;;;3.10;99.90;;;;;;5014922;28;20045;-89
2022/04/10 10:24:23;;;;;;;25.48;12.10;;;3.20;99.90;;;;;;5035394;28;20136;-89
2022/04/10 10:27:23;;;;;;;22.88;10.95;;;3.70;99.90;;;;;;5015304;28;20084;-89
2022/04/10 10:30:10;;;;;;;15.75;10.55;;;3.90;99.90;;;;;;5051551;28;20025;-89
2022/04/10 10:32:39;;;;;;;20.83;11.13;;;4.10;99.90;;;;;;5001945;28;20161;-89
2022/04/10 10:35:06;;;;;;;21.08;10.48;;;4.30;99.90;;;;;;5034855;28;20087;-88
2022/04/10 10:37:52;;;;;;;21.33;12.48;;;4.20;99.90;;;;;;5051766;28;20034;-89
2022/04/10 10:40:19;;;;;;;16.92;11.85;;;3.90;99.90;;;;;;5018256;28;20059;-89
2022/04/10 10:42:48;;;;;;;24.88;15.23;;;3.90;99.90;;;;;;5018178;28;20037;-89
2022/04/10 10:45:32;;;;;;;22.77;11.75;;;3.90;99.90;;;;;;5036225;28;20041;-89
2022/04/10 10:48:25;;;;;;;22.55;12.40;;;3.80;99.90;;;;;;5018007;28;20467;-89
2022/04/10 10:50:53;;;;;;;26.75;14.30;;;3.70;99.90;;;;;;5001451;28;20039;-89
2022/04/10 10:53:57;;;;;;;22.35;11.90;;;3.60;99.90;;;;;;5017899;28;20029;-89
2022/04/10 10:56:36;;;;;;;22.80;12.73;;;3.30;99.90;;;;;;5018233;28;20034;-89
2022/04/10 10:59:23;;;;;;;24.85;12.90;;;2.90;99.90;;;;;;5033003;28;20489;-90
2022/04/10 11:02:02;;;;;;;28.90;15.82;;;2.60;99.90;;;;;;5035505;28;20033;-90
2022/04/10 11:04:32;;;;;;;35.55;17.80;;;2.50;99.90;;;;;;5051369;28;20492;-89
2022/04/10 11:07:19;;;;;;;33.70;18.48;;;2.50;99.90;;;;;;5034831;28;20393;-90
2022/04/10 11:10:03;;;;;;;32.33;17.92;;;2.80;99.90;;;;;;5017952;28;20043;-89
2022/04/10 11:12:34;;;;;;;25.15;17.05;;;3.00;99.90;;;;;;5034366;28;20575;-90
2022/04/10 11:15:24;;;;;;;21.73;14.38;;;3.40;99.90;;;;;;5017780;28;20038;-89
2022/04/10 11:17:51;;;;;;;28.40;18.45;;;3.60;99.90;;;;;;5017511;28;20403;-90
2022/04/10 11:20:23;;;;;;;24.35;14.75;;;4.00;99.90;;;;;;5015745;28;20017;-89
2022/04/10 11:22:53;;;;;;;27.17;17.85;;;4.60;99.90;;;;;;5028169;28;20076;-89
2022/04/10 11:25:47;;;;;;;20.95;13.82;;;4.80;99.90;;;;;;5017678;28;20041;-90
2022/04/10 11:28:13;;;;;;;25.23;15.93;;;5.10;99.90;;;;;;5030523;28;20057;-89
2022/04/10 11:30:44;;;;;;;33.13;16.25;;;5.00;99.90;;;;;;5018465;28;20033;-90
2022/04/10 11:33:12;;;;;;;22.98;14.52;;;5.30;99.90;;;;;;5017773;28;20033;-90
2022/04/10 11:35:40;;;;;;;24.15;14.73;;;5.40;99.90;;;;;;5034243;28;20033;-90
2022/04/10 11:38:17;;;;;;;35.90;17.70;;;5.50;99.90;;;;;;5017261;28;20168;-90
2022/04/10 11:41:09;;;;;;;26.25;14.65;;;5.50;99.90;;;;;;5017102;28;20040;-90
2022/04/10 11:43:36;;;;;;;36.50;17.67;;;5.00;99.90;;;;;;5017231;28;20798;-89
2022/04/10 11:46:02;;;;;;;40.88;22.25;;;4.90;99.90;;;;;;5017284;28;20037;-90
2022/04/10 11:48:28;;;;;;;25.17;14.43;;;5.00;99.90;;;;;;5017134;28;20088;-90
2022/04/10 11:51:07;;;;;;;20.30;14.00;;;4.90;99.90;;;;;;5016880;28;20045;-90
2022/04/10 11:53:32;;;;;;;19.42;13.63;;;4.90;99.90;;;;;;5050479;28;20036;-89
2022/04/10 11:55:58;;;;;;;23.77;14.65;;;5.00;99.90;;;;;;5017290;28;20680;-90
2022/04/10 11:58:26;;;;;;;22.15;14.48;;;5.50;99.90;;;;;;5050152;28;20477;-90
2022/04/10 12:00:54;;;;;;;19.92;14.68;;;5.80;99.90;;;;;;5016849;28;20036;-90
2022/04/10 12:03:22;;;;;;;22.38;14.82;;;6.00;99.90;;;;;;5050021;28;20041;-89
2022/04/10 12:05:48;;;;;;;24.92;17.90;;;6.50;99.90;;;;;;5016649;28;20037;-88
2022/04/10 12:08:14;;;;;;;24.48;14.85;;;6.70;99.90;;;;;;5016469;28;20620;-90
2022/04/10 12:10:40;;;;;;;29.67;17.77;;;6.80;99.90;;;;;;5032762;28;20025;-90
2022/04/10 12:13:09;;;;;;;23.42;15.75;;;6.90;99.90;;;;;;5017421;28;20112;-90
2022/04/10 12:15:35;;;;;;;23.23;15.93;;;6.90;99.90;;;;;;5001038;28;20612;-90
2022/04/10 12:18:21;;;;;;;23.50;17.23;;;6.90;99.90;;;;;;5015116;28;20040;-88
2022/04/10 12:20:59;;;;;;;23.50;17.63;;;6.80;99.90;;;;;;5015838;28;20034;-91
2022/04/10 12:23:25;;;;;;;25.98;16.48;;;6.60;99.90;;;;;;5048253;28;20109;-90
2022/04/10 12:25:53;;;;;;;25.70;16.63;;;6.80;99.90;;;;;;5032638;28;20048;-91
2022/04/10 12:28:59;;;;;;;18.98;13.73;;;7.00;99.90;;;;;;5011564;28;20108;-90
2022/04/10 12:31:26;;;;;;;23.55;15.82;;;6.80;99.90;;;;;;5033889;28;20540;-88
2022/04/10 12:33:51;;;;;;;18.83;12.75;;;6.90;99.90;;;;;;5016106;28;20040;-89
2022/04/10 12:36:23;;;;;;;20.70;13.45;;;6.90;99.90;;;;;;5016233;28;20759;-89
2022/04/10 12:38:52;;;;;;;;;;;6.80;99.90;;;;;;5050427;28;20483;-88
2022/04/10 12:41:27;;;;;;;20.75;13.80;;;6.90;99.90;;;;;;5049242;28;20424;-90
2022/04/10 12:44:00;;;;;;;21.08;13.90;;;7.10;99.90;;;;;;5016505;28;20488;-90
2022/04/10 12:46:36;;;;;;;18.77;13.32;;;7.30;99.90;;;;;;5016404;28;20043;-90
2022/04/10 12:49:14;;;;;;;16.00;11.45;;;7.50;99.90;;;;;;5034037;28;20084;-90
2022/04/10 12:52:03;;;;;;;21.60;13.18;;;7.60;99.90;;;;;;5032460;28;20034;-90
2022/04/10 12:54:42;;;;;;;24.35;14.18;;;7.80;99.90;;;;;;5032663;28;20029;-91